Time;durP1;ratioP1;P1;durP2;ratioP2;P2;SDS_P1;SDS_P2;PMS_P1;PMS_P2;Temp;Humidity;BMP_temperature;BMP_pressure;BME280_temperature;BME280_humidity;BME280_pressure;Samples;Min_cycle;Max_cycle;Signal;HPM_P1;HPM_P2
2024/02/13 00:01:24;;;;;;;15.30;9.00;;;;;;;6.31;85.48;95852.44;108529;1272;22518;-72
2024/02/13 00:03:56;;;;;;;15.80;9.90;;;;;;;6.31;85.56;95850.86;108569;1266;22527;-72
2024/02/13 00:06:27;;;;;;;15.10;9.30;;;;;;;6.32;85.75;95855.80;108573;1273;24193;-72
2024/02/13 00:09:00;;;;;;;14.10;9.30;;;;;;;6.34;85.82;95857.77;108591;1273;22527;-72
2024/02/13 00:11:31;;;;;;;14.70;10.50;;;;;;;6.36;85.82;95860.61;108567;1273;22657;-72
2024/02/13 00:14:02;;;;;;;14.20;9.10;;;;;;;6.37;85.85;95862.76;108515;1273;24390;-72
2024/02/13 00:16:35;;;;;;;14.00;10.40;;;;;;;6.36;85.80;95861.66;108594;1266;22544;-72
2024/02/13 00:19:06;;;;;;;14.00;9.80;;;;;;;6.33;85.87;95863.65;108605;1273;25337;-73
2024/02/13 00:21:38;;;;;;;15.50;10.90;;;;;;;6.32;85.85;95864.65;108588;1273;22519;-72
2024/02/13 00:24:10;;;;;;;17.40;8.90;;;;;;;6.29;85.79;95863.72;108539;1273;25264;-72
2024/02/13 00:26:43;;;;;;;10.30;6.40;;;;;;;6.25;85.88;95866.89;108625;1273;22560;-72
2024/02/13 00:29:14;;;;;;;15.00;9.50;;;;;;;6.20;85.98;95872.39;108586;1273;22560;-72
2024/02/13 00:31:45;;;;;;;14.80;9.40;;;;;;;6.19;86.14;95874.16;108601;1265;22524;-72
2024/02/13 00:34:19;;;;;;;16.90;10.20;;;;;;;6.17;86.22;95876.07;108562;1273;25613;-72
2024/02/13 00:36:52;;;;;;;14.50;10.80;;;;;;;6.17;86.25;95878.86;108550;1273;23276;-72
2024/02/13 00:39:24;;;;;;;15.60;11.30;;;;;;;6.16;86.24;95883.55;108548;1273;24252;-72
2024/02/13 00:41:56;;;;;;;15.00;10.80;;;;;;;6.12;86.33;95886.73;108565;1266;25327;-73
2024/02/13 00:44:27;;;;;;;14.50;9.90;;;;;;;6.09;86.44;95893.31;108520;1273;25290;-73
2024/02/13 00:46:58;;;;;;;13.90;9.50;;;;;;;6.08;86.63;95895.16;108613;1273;22566;-73
2024/02/13 00:49:29;;;;;;;13.70;9.20;;;;;;;6.11;86.76;95896.26;108567;1264;22550;-72
2024/02/13 00:52:01;;;;;;;18.00;11.60;;;;;;;6.12;86.77;95901.78;108525;1272;22535;-72
2024/02/13 00:54:35;;;;;;;15.30;10.00;;;;;;;6.10;86.82;95901.30;108532;1273;25170;-72
2024/02/13 00:57:07;;;;;;;19.00;10.20;;;;;;;6.10;86.83;95906.52;108551;1273;26924;-72
2024/02/13 00:59:40;;;;;;;15.80;11.40;;;;;;;6.06;86.80;95910.16;108636;1273;22532;-72
2024/02/13 01:02:11;;;;;;;15.20;10.30;;;;;;;6.06;87.15;95915.01;108556;1273;22528;-73
2024/02/13 01:04:42;;;;;;;15.30;8.80;;;;;;;6.07;87.33;95918.59;108563;1273;22628;-73
2024/02/13 01:07:13;;;;;;;16.00;10.80;;;;;;;6.05;87.24;95914.67;108587;1273;24384;-72
2024/02/13 01:09:44;;;;;;;15.00;11.30;;;;;;;6.00;87.59;95913.89;108604;1273;22762;-72
2024/02/13 01:12:15;;;;;;;15.00;10.40;;;;;;;5.98;87.59;95918.59;108572;1273;24246;-73
2024/02/13 01:14:46;;;;;;;17.80;11.40;;;;;;;5.95;87.64;95922.65;108520;1272;22677;-72
2024/02/13 01:17:17;;;;;;;20.10;12.30;;;;;;;5.94;87.94;95922.91;108566;1272;22528;-72
2024/02/13 01:19:48;;;;;;;20.40;10.30;;;;;;;5.92;88.01;95926.33;108546;1272;22743;-72
2024/02/13 01:22:19;;;;;;;16.50;11.40;;;;;;;5.89;88.28;95931.62;108514;1273;26583;-73
2024/02/13 01:24:50;;;;;;;14.90;9.10;;;;;;;5.90;88.33;95925.69;108542;1273;24318;-72
2024/02/13 01:27:21;;;;;;;14.50;9.80;;;;;;;5.85;88.38;95928.93;108542;1273;24116;-72
2024/02/13 01:29:54;;;;;;;14.60;10.40;;;;;;;5.82;88.63;95928.27;108559;1267;22534;-72
2024/02/13 01:32:27;;;;;;;17.30;10.60;;;;;;;5.78;88.54;95929.63;108565;1269;22531;-72
2024/02/13 01:34:58;;;;;;;16.30;11.20;;;;;;;5.74;88.53;95938.34;108513;1273;25637;-72
2024/02/13 01:37:29;;;;;;;16.50;10.40;;;;;;;5.68;88.45;95938.20;108566;1269;26596;-72
2024/02/13 01:40:05;;;;;;;14.00;9.20;;;;;;;5.61;88.31;95941.39;108603;1273;24317;-72
2024/02/13 01:42:37;;;;;;;15.10;10.70;;;;;;;5.60;88.02;95942.23;108562;1273;22541;-72
2024/02/13 01:45:12;;;;;;;15.20;10.20;;;;;;;5.57;87.93;95947.88;108591;1273;24263;-72
2024/02/13 01:47:44;;;;;;;15.90;9.50;;;;;;;5.51;87.88;95955.77;108593;1273;23093;-72
2024/02/13 01:50:20;;;;;;;15.10;9.10;;;;;;;5.46;87.56;95955.27;108596;1270;22598;-72
2024/02/13 01:52:53;;;;;;;13.40;8.70;;;;;;;5.43;87.53;95960.21;108636;1273;24492;-72
2024/02/13 01:55:29;;;;;;;10.10;6.00;;;;;;;5.41;87.38;95963.73;108560;1273;22527;-72
2024/02/13 01:58:04;;;;;;;14.30;9.20;;;;;;;5.37;87.38;95970.58;108555;1267;22521;-72
2024/02/13 02:00:35;;;;;;;13.80;8.60;;;;;;;5.35;87.24;95975.62;108537;1273;22547;-73
2024/02/13 02:03:06;;;;;;;12.90;9.00;;;;;;;5.34;87.15;95975.02;108538;1273;22574;-72
2024/02/13 02:05:38;;;;;;;13.80;7.60;;;;;;;5.32;87.01;95985.73;108556;1273;22521;-73
2024/02/13 02:08:09;;;;;;;14.00;10.00;;;;;;;5.32;86.98;95984.58;108548;1273;25547;-72
2024/02/13 02:10:42;;;;;;;12.80;7.80;;;;;;;5.28;86.50;95981.48;108526;1273;22550;-72
2024/02/13 02:13:14;;;;;;;9.70;6.10;;;;;;;5.20;86.35;95987.28;108551;1273;22532;-72
2024/02/13 02:15:45;;;;;;;11.60;8.30;;;;;;;5.16;86.30;95989.59;108660;1273;24356;-72
2024/02/13 02:18:17;;;;;;;14.20;8.50;;;;;;;5.16;86.36;95992.95;108554;1267;22697;-72
2024/02/13 02:20:48;;;;;;;12.80;8.30;;;;;;;5.16;86.28;95992.42;108578;1273;22664;-72
2024/02/13 02:23:19;;;;;;;14.00;7.70;;;;;;;5.12;86.14;95991.27;108581;1273;22534;-72
2024/02/13 02:25:51;;;;;;;8.90;4.90;;;;;;;5.07;86.11;95999.80;108620;1267;22531;-72
2024/02/13 02:28:24;;;;;;;11.00;6.40;;;;;;;5.04;86.15;96000.58;108573;1273;22528;-72
2024/02/13 02:30:55;;;;;;;13.60;8.60;;;;;;;5.01;85.90;95998.67;108607;1273;22547;-73
2024/02/13 02:33:26;;;;;;;9.40;5.90;;;;;;;4.99;85.99;96003.77;108531;1273;24961;-72
2024/02/13 02:35:57;;;;;;;13.20;7.30;;;;;;;4.94;85.79;96000.91;108557;1273;22550;-72
2024/02/13 02:38:28;;;;;;;10.90;6.60;;;;;;;4.91;85.97;96006.46;108598;1273;24422;-73
2024/02/13 02:40:59;;;;;;;13.20;7.90;;;;;;;4.91;85.94;96008.72;108544;1267;22547;-72
2024/02/13 02:43:30;;;;;;;8.70;5.50;;;;;;;4.92;85.99;96005.21;108544;1271;22602;-72
2024/02/13 02:46:01;;;;;;;11.40;6.70;;;;;;;4.91;86.23;96012.71;108630;1273;24397;-73
2024/02/13 02:48:32;;;;;;;6.40;5.20;;;;;;;4.90;86.28;96005.46;108550;1273;22545;-73
2024/02/13 02:51:04;;;;;;;9.90;5.80;;;;;;;4.89;86.19;96008.46;108551;1270;22531;-72
2024/02/13 02:53:35;;;;;;;9.50;6.10;;;;;;;4.85;86.35;96005.45;108518;1259;22571;-72
2024/02/13 02:56:10;;;;;;;9.30;5.00;;;;;;;4.83;86.70;96007.45;108516;1267;22579;-72
2024/02/13 02:58:42;;;;;;;10.20;6.60;;;;;;;4.80;86.87;96015.84;108600;1273;22524;-73
2024/02/13 03:01:13;;;;;;;10.40;6.40;;;;;;;4.76;86.93;96017.11;108562;1267;22717;-72
2024/02/13 03:03:44;;;;;;;10.40;6.30;;;;;;;4.73;86.92;96020.52;108511;1271;23052;-72
2024/02/13 03:06:16;;;;;;;9.40;5.70;;;;;;;4.71;87.09;96020.73;108524;1273;22498;-72
2024/02/13 03:08:49;;;;;;;10.00;6.50;;;;;;;4.70;87.15;96027.44;108595;1271;22521;-72
2024/02/13 03:11:21;;;;;;;12.20;6.70;;;;;;;4.69;87.26;96034.21;108634;1273;22549;-72
2024/02/13 03:13:52;;;;;;;9.40;5.00;;;;;;;4.68;87.18;96039.36;108583;1273;24654;-73
2024/02/13 03:16:23;;;;;;;11.00;5.90;;;;;;;4.66;87.33;96048.15;108509;1273;25530;-72
2024/02/13 03:18:54;;;;;;;9.60;4.90;;;;;;;4.62;87.62;96047.23;108499;1273;22554;-72
2024/02/13 03:21:25;;;;;;;10.10;5.90;;;;;;;4.58;87.66;96060.70;108586;1273;22604;-72
2024/02/13 03:23:56;;;;;;;9.60;6.40;;;;;;;4.55;87.91;96060.80;108548;1273;25338;-72
2024/02/13 03:26:27;;;;;;;10.50;5.30;;;;;;;4.51;87.77;96066.33;108585;1266;22662;-73
2024/02/13 03:29:02;;;;;;;12.20;7.60;;;;;;;4.47;88.08;96068.77;108557;1272;22657;-72
2024/02/13 03:31:32;;;;;;;7.90;4.90;;;;;;;4.43;88.08;96064.65;108682;1273;22655;-72
2024/02/13 03:34:03;;;;;;;9.90;5.10;;;;;;;4.39;88.20;96075.45;108565;1273;22554;-73
2024/02/13 03:36:34;;;;;;;10.90;6.40;;;;;;;4.41;88.30;96082.43;108593;1273;22532;-73
2024/02/13 03:39:06;;;;;;;11.00;6.00;;;;;;;4.42;88.14;96081.70;108545;1273;23278;-72
2024/02/13 03:41:45;;;;;;;9.50;5.30;;;;;;;4.42;88.34;96091.78;108581;1273;24962;-72
2024/02/13 03:44:16;;;;;;;10.60;6.60;;;;;;;4.42;88.47;96098.66;108542;1273;22569;-72
2024/02/13 03:46:48;;;;;;;11.00;5.80;;;;;;;4.41;88.44;96100.02;108522;1273;22546;-72
2024/02/13 03:49:19;;;;;;;16.30;8.30;;;;;;;4.38;88.55;96101.32;108518;1273;23147;-73
2024/02/13 03:51:50;;;;;;;12.00;6.60;;;;;;;4.34;88.74;96110.08;108566;1273;22991;-73
2024/02/13 03:54:21;;;;;;;13.50;7.40;;;;;;;4.31;88.98;96110.95;108534;1273;24491;-72
2024/02/13 03:56:52;;;;;;;14.50;7.80;;;;;;;4.28;88.97;96119.49;108564;1273;22694;-72
2024/02/13 03:59:24;;;;;;;12.80;6.90;;;;;;;4.23;89.10;96121.45;108579;1273;22531;-72
2024/02/13 04:01:54;;;;;;;14.70;7.00;;;;;;;4.19;89.36;96128.31;108545;1273;24099;-72
2024/02/13 04:04:25;;;;;;;14.20;6.70;;;;;;;4.13;89.57;96132.27;108491;1273;22542;-72
2024/02/13 04:06:56;;;;;;;11.50;6.40;;;;;;;4.08;89.69;96137.94;108512;1273;24244;-72
2024/02/13 04:09:28;;;;;;;14.80;7.90;;;;;;;4.04;90.03;96134.12;108594;1273;22533;-72
2024/02/13 04:11:59;;;;;;;10.50;6.10;;;;;;;4.01;90.01;96138.28;108550;1273;24221;-72
2024/02/13 04:14:30;;;;;;;10.20;6.20;;;;;;;3.96;89.96;96143.70;108491;1267;23138;-73
2024/02/13 04:17:01;;;;;;;10.90;6.10;;;;;;;3.93;90.01;96144.71;108605;1267;25409;-72
2024/02/13 04:19:32;;;;;;;12.30;6.80;;;;;;;3.89;89.87;96149.96;108520;1273;22550;-72
2024/02/13 04:22:04;;;;;;;11.70;6.00;;;;;;;3.86;89.76;96153.20;108467;1273;22524;-72
2024/02/13 04:24:35;;;;;;;10.90;6.00;;;;;;;3.84;89.85;96154.02;108558;1273;22615;-72
2024/02/13 04:27:07;;;;;;;8.70;5.20;;;;;;;3.84;89.98;96154.17;108543;1267;23068;-72
2024/02/13 04:29:41;;;;;;;12.00;7.10;;;;;;;3.84;90.05;96156.48;108508;1266;22535;-72
2024/02/13 04:32:12;;;;;;;10.90;6.80;;;;;;;3.84;90.12;96152.29;108525;1273;22529;-73
2024/02/13 04:34:43;;;;;;;10.60;6.40;;;;;;;3.83;89.87;96151.80;108520;1267;25415;-72
2024/02/13 04:37:14;;;;;;;9.50;5.50;;;;;;;3.82;89.72;96150.90;108596;1273;22700;-72
2024/02/13 04:39:45;;;;;;;10.50;5.70;;;;;;;3.79;89.66;96146.50;108537;1273;26138;-73
2024/02/13 04:42:16;;;;;;;9.50;5.80;;;;;;;3.76;89.61;96145.98;108569;1273;22642;-73
2024/02/13 04:44:47;;;;;;;9.90;5.60;;;;;;;3.75;89.41;96145.94;108576;1273;22731;-71
2024/02/13 04:47:18;;;;;;;10.10;6.00;;;;;;;3.72;89.35;96144.39;108612;1270;22532;-72
2024/02/13 04:49:50;;;;;;;10.80;6.60;;;;;;;3.69;89.12;96141.95;108646;1267;22596;-72
2024/02/13 04:52:21;;;;;;;9.20;5.70;;;;;;;3.67;89.13;96145.53;108594;1273;22530;-72
2024/02/13 04:54:53;;;;;;;8.80;5.50;;;;;;;3.64;89.10;96147.16;108590;1266;24498;-72
2024/02/13 04:57:24;;;;;;;11.50;6.20;;;;;;;3.63;89.00;96150.66;108551;1273;22533;-73
2024/02/13 04:59:57;;;;;;;8.50;5.20;;;;;;;3.65;89.20;96151.02;108612;1273;22566;-72
2024/02/13 05:02:29;;;;;;;10.40;5.90;;;;;;;3.68;89.10;96152.89;108551;1273;22644;-72
2024/02/13 05:07:48;;;;;;;7.10;4.20;;;;;;;3.71;88.75;96161.42;108610;1273;22670;-72
2024/02/13 05:10:19;;;;;;;7.80;5.50;;;;;;;3.74;88.82;96167.01;108588;1273;24219;-73
2024/02/13 05:12:52;;;;;;;7.90;4.40;;;;;;;3.77;88.48;96169.13;108603;1273;22530;-73
2024/02/13 05:15:23;;;;;;;7.20;5.10;;;;;;;3.78;88.36;96174.43;108590;1266;22576;-72
2024/02/13 05:17:54;;;;;;;8.00;5.50;;;;;;;3.78;88.10;96178.31;108595;1265;26491;-73
2024/02/13 05:20:25;;;;;;;8.50;5.40;;;;;;;3.81;88.12;96184.20;108569;1272;22638;-72
2024/02/13 05:22:56;;;;;;;7.70;5.00;;;;;;;3.85;88.02;96189.89;108601;1273;24101;-72
2024/02/13 05:25:27;;;;;;;7.80;4.40;;;;;;;3.87;87.85;96192.95;108573;1274;22649;-73
2024/02/13 05:27:59;;;;;;;9.50;5.90;;;;;;;3.87;87.84;96197.15;108572;1274;22590;-72
2024/02/13 05:30:33;;;;;;;11.00;6.20;;;;;;;3.86;87.80;96197.66;108542;1267;22528;-72
2024/02/13 05:33:04;;;;;;;9.30;5.60;;;;;;;3.86;87.78;96200.34;108550;1273;22719;-72
2024/02/13 05:35:38;;;;;;;9.70;5.50;;;;;;;3.86;87.72;96211.61;108617;1273;22685;-72
2024/02/13 05:38:09;;;;;;;8.70;5.20;;;;;;;3.84;87.68;96219.04;108551;1273;22545;-72
2024/02/13 05:40:42;;;;;;;8.70;6.00;;;;;;;3.85;87.72;96221.73;108527;1272;24881;-72
2024/02/13 05:43:14;;;;;;;7.90;5.20;;;;;;;3.83;87.81;96228.79;108600;1270;22523;-72
2024/02/13 05:45:47;;;;;;;7.70;5.80;;;;;;;3.85;87.70;96232.06;108573;1273;22638;-72
2024/02/13 05:48:18;;;;;;;8.30;5.10;;;;;;;3.87;87.84;96235.22;108527;1273;25398;-72
2024/02/13 05:50:50;;;;;;;9.70;5.60;;;;;;;3.92;87.77;96241.25;108535;1273;22544;-72
2024/02/13 05:53:22;;;;;;;8.40;5.50;;;;;;;3.94;87.96;96245.92;108561;1273;25908;-72
2024/02/13 05:55:53;;;;;;;7.20;4.60;;;;;;;3.95;87.76;96253.48;108584;1273;26437;-72
2024/02/13 05:58:27;;;;;;;7.40;4.70;;;;;;;3.99;87.73;96250.89;108577;1273;23023;-72
2024/02/13 06:00:58;;;;;;;8.00;4.70;;;;;;;4.03;87.74;96258.42;108569;1266;22573;-72
2024/02/13 06:03:32;;;;;;;10.50;5.00;;;;;;;4.04;87.83;96259.02;108538;1273;25309;-72
2024/02/13 06:06:05;;;;;;;7.70;4.40;;;;;;;4.08;87.93;96259.23;108612;1269;25293;-72
2024/02/13 06:08:36;;;;;;;7.80;4.90;;;;;;;4.12;87.72;96267.41;108623;1269;24491;-72
2024/02/13 06:11:07;;;;;;;6.50;4.60;;;;;;;4.13;87.81;96264.70;108570;1273;22522;-72
2024/02/13 06:13:41;;;;;;;8.20;4.30;;;;;;;4.17;87.81;96270.48;108537;1274;26767;-72
2024/02/13 06:16:13;;;;;;;8.60;4.80;;;;;;;4.19;87.73;96267.95;108563;1274;22540;-72
2024/02/13 06:18:46;;;;;;;6.90;4.70;;;;;;;4.22;87.65;96273.13;108480;1274;22549;-72
2024/02/13 06:21:18;;;;;;;6.90;4.70;;;;;;;4.25;87.71;96274.99;108539;1274;23067;-72
2024/02/13 06:23:49;;;;;;;7.00;5.40;;;;;;;4.27;87.73;96278.17;108587;1263;22529;-72
2024/02/13 06:26:21;;;;;;;9.80;5.70;;;;;;;4.29;87.71;96280.92;108411;1274;184528;-72
2024/02/13 06:28:53;;;;;;;8.10;4.90;;;;;;;4.31;87.64;96283.92;108521;1274;22695;-72
2024/02/13 06:31:24;;;;;;;9.10;5.70;;;;;;;4.32;87.74;96288.81;108574;1270;22711;-73
2024/02/13 06:33:55;;;;;;;10.00;5.60;;;;;;;4.36;87.91;96292.75;108551;1274;22572;-72
2024/02/13 06:36:27;;;;;;;9.60;5.40;;;;;;;4.38;87.71;96299.81;108541;1269;22799;-72
2024/02/13 06:38:58;;;;;;;10.10;5.40;;;;;;;4.40;87.79;96302.09;108540;1274;22521;-73
2024/02/13 06:41:29;;;;;;;8.30;5.80;;;;;;;4.43;87.81;96307.37;108529;1274;22576;-72
2024/02/13 06:44:03;;;;;;;10.30;6.20;;;;;;;4.46;87.87;96307.02;108536;1274;22565;-72
2024/02/13 06:46:34;;;;;;;10.00;5.60;;;;;;;4.49;87.90;96311.10;108584;1274;22647;-72
2024/02/13 06:49:05;;;;;;;10.10;6.90;;;;;;;4.50;87.84;96311.48;108542;1267;22557;-72
2024/02/13 06:51:36;;;;;;;10.50;6.90;;;;;;;4.49;87.87;96320.06;108555;1274;24292;-72
2024/02/13 06:54:08;;;;;;;11.90;7.90;;;;;;;4.49;88.08;96324.95;108553;1267;22523;-72
2024/02/13 06:56:41;;;;;;;11.40;7.10;;;;;;;4.49;87.92;96325.63;108558;1274;22549;-72
2024/02/13 06:59:12;;;;;;;11.20;7.20;;;;;;;4.48;88.11;96326.00;108561;1266;22531;-72
2024/02/13 07:01:43;;;;;;;10.10;6.30;;;;;;;4.49;88.05;96327.89;108541;1266;22543;-72
2024/02/13 07:04:14;;;;;;;12.20;7.60;;;;;;;4.51;88.29;96332.23;108580;1269;22916;-72
2024/02/13 07:06:46;;;;;;;11.70;8.10;;;;;;;4.51;88.38;96334.02;108634;1274;22548;-73
2024/02/13 07:09:17;;;;;;;13.20;8.10;;;;;;;4.51;88.41;96335.65;108611;1269;23827;-72
2024/02/13 07:11:48;;;;;;;11.40;6.00;;;;;;;4.50;88.45;96332.53;108637;1266;22673;-72
2024/02/13 07:14:22;;;;;;;15.90;8.80;;;;;;;4.44;88.53;96339.71;108573;1274;25907;-72
2024/02/13 07:16:53;;;;;;;13.10;8.80;;;;;;;4.42;88.73;96343.78;108633;1269;22540;-72
2024/02/13 07:19:25;;;;;;;14.80;7.50;;;;;;;4.43;88.98;96347.10;108665;1270;22494;-72
2024/02/13 07:21:56;;;;;;;15.80;9.50;;;;;;;4.41;88.93;96351.02;108629;1267;23337;-73
2024/02/13 07:24:27;;;;;;;15.40;9.50;;;;;;;4.39;89.27;96350.58;108604;1274;22608;-72
2024/02/13 07:27:00;;;;;;;17.40;11.10;;;;;;;4.37;89.62;96356.64;108652;1267;25371;-73
2024/02/13 07:29:31;;;;;;;15.30;9.60;;;;;;;4.34;90.03;96355.12;108673;1269;22521;-72
2024/02/13 07:32:03;;;;;;;14.10;9.30;;;;;;;4.33;90.38;96359.10;108609;1274;23064;-72
2024/02/13 07:34:37;;;;;;;18.10;11.20;;;;;;;4.32;90.81;96356.41;108628;1274;24866;-72
2024/02/13 07:37:10;;;;;;;15.10;10.20;;;;;;;4.30;91.27;96360.70;108673;1274;22548;-72
2024/02/13 07:39:41;;;;;;;15.50;12.00;;;;;;;4.34;91.17;96363.09;108613;1269;22555;-72
2024/02/13 07:42:12;;;;;;;15.60;10.60;;;;;;;4.36;91.32;96368.00;108621;1262;24202;-72
2024/02/13 07:44:43;;;;;;;17.70;10.60;;;;;;;4.36;91.39;96371.11;108620;1270;23052;-72
2024/02/13 07:47:15;;;;;;;14.10;9.70;;;;;;;4.36;91.44;96371.20;108624;1274;25447;-72
2024/02/13 07:49:46;;;;;;;18.30;10.60;;;;;;;4.39;91.55;96374.56;108563;1274;23346;-72
2024/02/13 07:52:17;;;;;;;16.30;11.70;;;;;;;4.41;91.56;96380.04;108567;1274;22623;-73
2024/02/13 07:54:49;;;;;;;13.80;9.50;;;;;;;4.40;91.88;96376.35;108565;1274;22520;-72
2024/02/13 07:57:21;;;;;;;16.60;8.90;;;;;;;4.34;92.37;96377.27;108581;1267;22548;-72
2024/02/13 07:59:55;;;;;;;16.40;9.50;;;;;;;4.29;92.74;96384.04;108557;1266;22570;-72
2024/02/13 08:02:28;;;;;;;16.40;12.20;;;;;;;4.28;93.11;96386.02;108520;1266;23210;-72
2024/02/13 08:04:59;;;;;;;18.70;13.10;;;;;;;4.30;93.05;96386.78;108514;1274;23279;-72
2024/02/13 08:07:31;;;;;;;17.00;10.70;;;;;;;4.32;93.19;96389.32;108443;1267;22574;-72
2024/02/13 08:10:03;;;;;;;14.30;11.40;;;;;;;4.33;93.14;96387.86;108495;1267;22524;-72
2024/02/13 08:12:35;;;;;;;19.20;10.70;;;;;;;4.37;93.32;96389.86;108450;1274;22589;-72
2024/02/13 08:15:08;;;;;;;15.90;11.00;;;;;;;4.40;93.26;96393.98;108497;1251;22550;-73
2024/02/13 08:17:39;;;;;;;16.00;11.00;;;;;;;4.45;93.42;96393.83;108525;1273;22531;-72
2024/02/13 08:20:11;;;;;;;17.40;12.50;;;;;;;4.50;93.51;96393.16;108553;1274;22547;-73
2024/02/13 08:22:43;;;;;;;17.30;13.20;;;;;;;4.49;93.37;96398.77;108299;1266;23007;-72
2024/02/13 08:25:18;;;;;;;18.60;13.60;;;;;;;4.41;93.42;96402.99;108422;1274;22530;-72
2024/02/13 08:27:49;;;;;;;17.00;12.40;;;;;;;4.35;93.64;96402.84;108457;1269;22559;-72
2024/02/13 08:30:20;;;;;;;20.40;13.00;;;;;;;4.28;94.06;96410.48;108496;1267;22540;-72
2024/02/13 08:32:51;;;;;;;21.40;15.20;;;;;;;4.20;94.42;96420.18;108389;1266;22544;-72
2024/02/13 08:35:22;;;;;;;22.30;16.40;;;;;;;4.17;94.47;96418.77;108322;1250;23347;-72
2024/02/13 08:37:54;;;;;;;25.80;15.30;;;;;;;4.13;94.65;96419.77;108506;1274;24359;-72
2024/02/13 08:40:25;;;;;;;22.70;14.80;;;;;;;4.04;95.10;96429.03;108510;1274;22537;-72
2024/02/13 08:42:56;;;;;;;21.70;15.20;;;;;;;3.96;95.28;96435.38;108408;1264;22550;-72
2024/02/13 08:45:28;;;;;;;22.90;15.50;;;;;;;3.94;95.43;96434.87;108546;1274;22548;-72
2024/02/13 08:47:59;;;;;;;22.20;11.70;;;;;;;3.93;95.86;96441.25;108467;1269;22525;-72
2024/02/13 08:50:31;;;;;;;18.20;12.10;;;;;;;3.93;96.01;96441.93;108568;1270;24286;-71
2024/02/13 08:53:02;;;;;;;22.30;13.30;;;;;;;3.92;96.36;96447.48;108487;1273;22531;-72
2024/02/13 08:55:33;;;;;;;23.70;16.50;;;;;;;3.94;96.34;96446.48;108559;1274;23314;-72
2024/02/13 08:58:04;;;;;;;20.40;15.00;;;;;;;4.00;96.46;96452.86;108485;1270;22562;-72
2024/02/13 09:00:35;;;;;;;16.00;11.70;;;;;;;4.07;96.42;96447.23;108481;1267;22598;-72
2024/02/13 09:03:07;;;;;;;19.40;12.00;;;;;;;4.13;96.58;96452.20;108524;1274;22644;-72
2024/02/13 09:05:38;;;;;;;19.70;11.10;;;;;;;4.21;96.68;96440.86;108534;1274;24202;-72
2024/02/13 09:08:09;;;;;;;18.70;13.90;;;;;;;4.33;96.77;96450.80;108539;1266;25297;-72
2024/02/13 09:10:41;;;;;;;17.20;12.20;;;;;;;4.37;96.11;96456.84;108549;1268;25058;-72
2024/02/13 09:13:12;;;;;;;18.80;14.00;;;;;;;4.35;95.53;96459.15;108537;1274;24248;-72
2024/02/13 09:15:43;;;;;;;19.40;13.50;;;;;;;4.33;95.43;96456.83;108538;1274;24234;-72
2024/02/13 09:18:15;;;;;;;19.50;12.40;;;;;;;4.34;95.04;96465.70;108520;1266;22814;-72
2024/02/13 09:20:46;;;;;;;14.30;8.50;;;;;;;4.36;94.64;96464.38;108584;1274;25271;-71
2024/02/13 09:23:19;;;;;;;16.30;11.10;;;;;;;4.36;94.57;96472.95;108449;1266;25363;-72
2024/02/13 09:25:51;;;;;;;16.70;12.30;;;;;;;4.44;94.29;96473.58;108843;1274;22537;-72
2024/02/13 09:28:22;;;;;;;15.50;10.20;;;;;;;4.50;94.13;96468.86;108522;1267;22524;-72
2024/02/13 09:30:54;;;;;;;17.40;10.60;;;;;;;4.51;93.74;96476.30;108563;1274;22741;-72
2024/02/13 09:33:25;;;;;;;14.20;9.40;;;;;;;4.60;93.79;96485.48;108498;1267;22590;-72
2024/02/13 09:35:57;;;;;;;15.30;10.50;;;;;;;4.94;94.34;96488.27;108530;1266;22551;-72
2024/02/13 09:38:29;;;;;;;14.40;10.80;;;;;;;5.32;94.07;96484.49;108559;1274;22558;-73
2024/02/13 09:41:01;;;;;;;13.10;8.10;;;;;;;5.54;93.50;96476.87;108547;1270;22536;-72
2024/02/13 09:43:32;;;;;;;12.50;9.20;;;;;;;5.53;91.40;96481.37;108489;1266;22550;-73
2024/02/13 09:46:05;;;;;;;11.90;8.30;;;;;;;5.41;90.81;96483.36;108506;1269;23569;-72
2024/02/13 09:48:38;;;;;;;11.70;8.70;;;;;;;5.49;90.89;96487.77;108518;1266;23081;-72
2024/02/13 09:51:12;;;;;;;13.60;9.20;;;;;;;5.48;90.36;96487.20;108577;1267;22534;-72
2024/02/13 09:53:44;;;;;;;13.00;8.30;;;;;;;5.46;90.09;96487.92;108437;1266;23335;-72
2024/02/13 09:56:16;;;;;;;13.80;9.20;;;;;;;5.35;89.47;96487.67;108584;1269;24388;-72
2024/02/13 09:58:48;;;;;;;13.00;7.80;;;;;;;5.34;89.13;96480.35;108573;1266;26779;-73
2024/02/13 10:01:20;;;;;;;8.80;4.80;;;;;;;5.34;88.59;96492.23;108504;1274;22529;-73
2024/02/13 10:03:52;;;;;;;8.60;5.20;;;;;;;5.38;88.09;96493.39;108540;1274;22534;-72
2024/02/13 10:06:24;;;;;;;12.10;7.70;;;;;;;5.45;87.44;96491.60;108611;1274;22531;-73
2024/02/13 10:08:55;;;;;;;11.30;6.80;;;;;;;5.60;87.87;96487.66;108585;1266;22712;-72
2024/02/13 10:11:36;;;;;;;9.00;6.00;;;;;;;5.68;87.09;96491.46;108524;1274;22659;-73
2024/02/13 10:14:16;;;;;;;9.60;5.10;;;;;;;5.72;86.57;96492.27;108528;1269;22525;-72
2024/02/13 10:16:49;;;;;;;10.10;6.20;;;;;;;5.76;85.73;96491.30;108561;1274;25540;-72
2024/02/13 10:19:21;;;;;;;9.30;6.60;;;;;;;5.82;85.53;96490.84;108517;1266;22638;-73
2024/02/13 10:22:05;;;;;;;9.20;5.90;;;;;;;5.87;84.87;96494.30;108520;1274;22531;-71
2024/02/13 10:24:36;;;;;;;9.90;7.10;;;;;;;5.92;84.78;96499.13;108496;1274;22530;-72
2024/02/13 10:27:09;;;;;;;9.30;6.40;;;;;;;5.92;84.48;96496.34;108513;1274;24402;-72
2024/02/13 10:29:45;;;;;;;10.30;6.50;;;;;;;5.98;84.54;96498.32;108636;1274;22605;-72
2024/02/13 10:32:18;;;;;;;9.00;6.70;;;;;;;6.03;84.08;96502.82;108501;1270;25349;-72
2024/02/13 10:34:51;;;;;;;7.70;5.20;;;;;;;6.06;84.06;96500.95;108485;1259;22663;-72
2024/02/13 10:37:26;;;;;;;9.00;5.80;;;;;;;5.91;82.83;96500.30;108471;1274;25445;-72
2024/02/13 10:40:04;;;;;;;10.60;6.80;;;;;;;5.74;82.42;96505.40;108520;1269;22647;-72
2024/02/13 10:42:38;;;;;;;8.80;6.00;;;;;;;5.68;83.14;96513.08;108653;1267;23313;-72
2024/02/13 10:45:12;;;;;;;11.90;6.80;;;;;;;5.80;83.43;96515.71;108485;1267;22550;-72
2024/02/13 10:47:51;;;;;;;10.70;7.10;;;;;;;5.83;83.05;96511.89;108593;1274;22745;-73
2024/02/13 10:50:23;;;;;;;11.30;6.40;;;;;;;5.92;83.17;96512.38;108652;1274;26472;-72
2024/02/13 10:52:55;;;;;;;9.10;5.90;;;;;;;5.98;82.93;96505.63;108683;1267;22540;-73
2024/02/13 10:55:27;;;;;;;7.90;5.40;;;;;;;6.02;82.98;96510.81;108585;1264;24446;-72
2024/02/13 10:58:00;;;;;;;10.50;5.50;;;;;;;5.94;82.30;96507.75;108584;1266;25367;-72
2024/02/13 11:00:34;;;;;;;10.00;6.10;;;;;;;5.67;81.97;96512.06;108644;1274;22534;-72
2024/02/13 11:03:07;;;;;;;9.30;6.20;;;;;;;5.51;82.11;96514.60;108642;1273;22763;-73
2024/02/13 11:05:39;;;;;;;9.30;5.00;;;;;;;5.43;81.95;96511.20;108521;1274;22525;-72
2024/02/13 11:08:13;;;;;;;12.10;7.00;;;;;;;5.42;82.04;96520.19;108524;1269;24230;-72
2024/02/13 11:10:44;;;;;;;10.30;7.50;;;;;;;5.44;82.16;96521.88;108523;1269;22530;-72
2024/02/13 11:13:18;;;;;;;9.20;6.80;;;;;;;5.49;82.56;96522.35;108466;1274;25542;-72
2024/02/13 11:15:51;;;;;;;9.40;6.20;;;;;;;5.63;82.94;96518.72;108528;1274;22531;-72
2024/02/13 11:18:28;;;;;;;8.90;6.00;;;;;;;5.73;82.76;96521.69;108549;1267;22535;-72
2024/02/13 11:21:08;;;;;;;11.30;6.50;;;;;;;5.75;82.61;96520.39;108544;1274;22527;-72
2024/02/13 11:23:51;;;;;;;7.00;4.50;;;;;;;5.71;82.11;96516.67;108547;1267;24222;-72
2024/02/13 11:26:25;;;;;;;11.00;7.10;;;;;;;5.55;81.11;96517.48;108570;1266;22526;-72
2024/02/13 11:28:56;;;;;;;11.70;6.80;;;;;;;5.50;81.55;96524.14;108570;1274;24259;-72
2024/02/13 11:31:29;;;;;;;8.40;5.60;;;;;;;5.56;81.92;96519.17;108539;1270;22523;-72
2024/02/13 11:34:13;;;;;;;8.40;5.50;;;;;;;5.61;81.51;96526.90;108549;1269;22539;-72
2024/02/13 11:36:49;;;;;;;10.20;6.30;;;;;;;5.68;81.52;96533.80;108553;1269;22581;-72
2024/02/13 11:39:21;;;;;;;9.00;5.70;;;;;;;5.69;81.45;96522.23;108585;1274;23511;-72
2024/02/13 11:42:00;;;;;;;12.00;5.40;;;;;;;5.70;81.21;96527.83;108525;1270;22650;-72
2024/02/13 11:44:36;;;;;;;7.10;4.90;;;;;;;5.76;81.35;96530.20;108499;1267;22520;-72
2024/02/13 11:47:10;;;;;;;6.30;4.90;;;;;;;5.82;81.06;96529.15;108564;1274;22524;-72
2024/02/13 11:49:42;;;;;;;7.50;4.70;;;;;;;5.80;80.87;96529.39;108510;1274;22533;-72
2024/02/13 11:52:15;;;;;;;6.40;4.50;;;;;;;5.77;80.57;96533.36;108549;1274;22573;-72